createdAt,value
2019-01-31T00:02:04.357Z,-3.60
2019-01-31T00:04:50.788Z,-3.50
2019-01-31T00:07:24.108Z,-3.50
2019-01-31T00:09:58.455Z,-3.50
2019-01-31T00:12:46.696Z,-3.60
2019-01-31T00:15:17.723Z,-3.60
2019-01-31T00:17:51.725Z,-3.60
2019-01-31T00:20:23.032Z,-3.70
2019-01-31T00:23:19.220Z,-3.70
2019-01-31T00:25:53.833Z,-3.80
2019-01-31T00:28:32.108Z,-3.80
2019-01-31T00:31:22.086Z,-3.80
2019-01-31T00:34:13.948Z,-3.80
2019-01-31T00:37:16.834Z,-3.90
2019-01-31T00:39:56.957Z,-4.00
2019-01-31T00:42:34.150Z,-4.00
2019-01-31T00:45:24.554Z,-4.00
2019-01-31T00:48:08.717Z,-4.10
2019-01-31T00:50:51.103Z,-4.10
2019-01-31T00:53:24.336Z,-4.10
2019-01-31T00:56:05.505Z,-4.20
2019-01-31T00:58:38.164Z,-4.20
2019-01-31T01:01:26.958Z,-4.20
2019-01-31T01:04:23.240Z,-4.20
2019-01-31T01:06:55.978Z,-4.30
2019-01-31T01:09:28.725Z,-4.40
2019-01-31T01:11:59.885Z,-4.50
2019-01-31T01:14:47.000Z,-4.50
2019-01-31T01:17:24.436Z,-4.50
2019-01-31T01:20:14.368Z,-4.60
2019-01-31T01:22:50.270Z,-4.60
2019-01-31T01:25:40.745Z,-4.70
2019-01-31T01:28:30.773Z,-4.80
2019-01-31T01:31:36.170Z,-4.90
2019-01-31T01:34:39.052Z,-4.90
2019-01-31T01:37:15.216Z,-4.90
2019-01-31T01:40:00.009Z,-4.90
2019-01-31T01:42:44.749Z,-5.00
2019-01-31T01:45:35.032Z,-5.00
2019-01-31T01:48:37.257Z,-5.00
2019-01-31T01:51:27.221Z,-5.10
2019-01-31T01:54:09.193Z,-5.10
2019-01-31T01:56:52.232Z,-5.10
2019-01-31T01:59:25.905Z,-5.10
2019-01-31T02:02:02.924Z,-5.20
2019-01-31T02:04:52.856Z,-5.20
2019-01-31T02:07:24.572Z,-5.20
2019-01-31T02:10:16.833Z,-5.20
2019-01-31T02:13:03.042Z,-5.20
2019-01-31T02:15:44.535Z,-5.20
2019-01-31T02:18:24.512Z,-5.20
2019-01-31T02:21:20.329Z,-5.30
2019-01-31T02:23:57.676Z,-5.30
2019-01-31T02:26:47.604Z,-5.30
2019-01-31T02:29:28.816Z,-5.30
2019-01-31T02:32:31.450Z,-5.10
2019-01-31T02:35:09.646Z,-5.00
2019-01-31T02:37:58.798Z,-5.00
2019-01-31T02:40:46.000Z,-4.80
2019-01-31T02:43:22.368Z,-4.80
2019-01-31T02:46:10.313Z,-4.80
2019-01-31T02:48:46.770Z,-4.90
2019-01-31T02:51:33.981Z,-4.90
2019-01-31T02:54:08.068Z,-4.90
2019-01-31T02:56:58.010Z,-4.90
2019-01-31T02:59:29.769Z,-4.80
2019-01-31T03:02:09.077Z,-4.80
2019-01-31T03:04:47.543Z,-4.80
2019-01-31T03:07:31.440Z,-4.80
2019-01-31T03:10:18.566Z,-4.80
2019-01-31T03:12:59.753Z,-4.70
2019-01-31T03:15:49.657Z,-4.70
2019-01-31T03:18:29.751Z,-4.80
2019-01-31T03:21:07.939Z,-4.70
2019-01-31T03:23:49.776Z,-4.70
2019-01-31T03:26:37.232Z,-4.80
2019-01-31T03:29:20.408Z,-4.90
2019-01-31T03:32:13.965Z,-4.90
2019-01-31T03:35:07.165Z,-5.00
2019-01-31T03:37:50.510Z,-5.10
2019-01-31T03:40:28.047Z,-5.20
2019-01-31T03:43:33.502Z,-5.30
2019-01-31T03:46:32.528Z,-5.30
2019-01-31T03:49:05.737Z,-5.40
2019-01-31T03:51:40.864Z,-5.40
2019-01-31T03:54:27.052Z,-5.40
2019-01-31T03:57:14.165Z,-5.50
2019-01-31T03:59:48.298Z,-5.50
2019-01-31T04:02:39.327Z,-5.60
2019-01-31T04:05:30.966Z,-5.70
2019-01-31T04:07:58.920Z,-5.70
2019-01-31T04:10:26.905Z,-5.80
2019-01-31T04:12:54.881Z,-5.90
2019-01-31T04:15:23.097Z,-5.90
2019-01-31T04:17:51.025Z,-5.90
2019-01-31T04:20:18.998Z,-5.90
2019-01-31T04:22:46.877Z,-5.90
2019-01-31T04:25:15.408Z,-5.90
2019-01-31T04:27:43.685Z,-5.80
2019-01-31T04:30:13.313Z,-5.80
2019-01-31T04:32:41.265Z,-5.80
2019-01-31T04:35:09.530Z,-5.80
2019-01-31T04:37:37.431Z,-5.80
2019-01-31T04:40:06.558Z,-5.80
2019-01-31T04:42:34.435Z,-5.80
2019-01-31T04:45:02.604Z,-5.80
2019-01-31T04:47:30.564Z,-5.70
2019-01-31T04:49:58.542Z,-5.70
2019-01-31T04:52:26.428Z,-5.60
2019-01-31T04:54:54.319Z,-5.60
2019-01-31T04:57:22.202Z,-5.70
2019-01-31T04:59:55.821Z,-5.70
2019-01-31T05:02:23.961Z,-5.70
2019-01-31T05:04:51.965Z,-5.70
2019-01-31T05:07:20.268Z,-5.80
2019-01-31T05:09:48.424Z,-5.80
2019-01-31T05:12:16.299Z,-5.80
2019-01-31T05:14:44.553Z,-5.80
2019-01-31T05:17:12.453Z,-5.80
2019-01-31T05:19:40.379Z,-5.80
2019-01-31T05:22:08.305Z,-5.80
2019-01-31T05:24:36.273Z,-5.80
2019-01-31T05:27:04.540Z,-5.70
2019-01-31T05:29:32.604Z,-5.70
2019-01-31T05:32:00.518Z,-5.60
2019-01-31T05:34:28.865Z,-5.50
2019-01-31T05:36:56.862Z,-5.30
2019-01-31T05:39:25.094Z,-5.20
2019-01-31T05:41:52.998Z,-5.00
2019-01-31T05:44:21.229Z,-4.90
2019-01-31T05:46:49.520Z,-4.80
2019-01-31T05:49:17.685Z,-4.70
2019-01-31T05:51:45.765Z,-4.60
2019-01-31T05:54:13.771Z,-4.50
2019-01-31T05:56:41.808Z,-4.40
2019-01-31T05:59:10.102Z,-4.40
2019-01-31T06:01:38.078Z,-4.30
2019-01-31T06:04:06.144Z,-4.30
2019-01-31T06:06:34.126Z,-4.20
2019-01-31T06:09:03.821Z,-4.20
2019-01-31T06:11:32.053Z,-4.20
2019-01-31T06:13:59.967Z,-4.10
2019-01-31T06:16:27.966Z,-4.10
2019-01-31T06:18:55.904Z,-4.10
2019-01-31T06:21:23.821Z,-4.00
2019-01-31T06:23:51.780Z,-3.90
2019-01-31T06:26:19.752Z,-3.90
2019-01-31T06:28:47.980Z,-3.90
2019-01-31T06:31:15.992Z,-3.80
2019-01-31T06:33:43.964Z,-3.70
2019-01-31T06:36:11.898Z,-3.70
2019-01-31T06:38:39.818Z,-3.70
2019-01-31T06:41:18.357Z,-3.60
2019-01-31T06:43:38.440Z,-3.60
2019-01-31T06:46:06.605Z,-3.60
2019-01-31T06:48:34.491Z,-3.50
2019-01-31T06:51:02.395Z,-3.40
2019-01-31T06:53:30.560Z,-3.40
2019-01-31T06:55:58.457Z,-3.40
2019-01-31T06:58:26.404Z,-3.30
2019-01-31T07:00:54.328Z,-3.30
2019-01-31T07:03:22.427Z,-3.20
2019-01-31T07:05:50.399Z,-3.20
2019-01-31T07:08:18.385Z,-3.20
2019-01-31T07:10:46.530Z,-3.20
2019-01-31T07:13:14.473Z,-3.10
2019-01-31T07:15:42.376Z,-3.10
2019-01-31T07:18:10.267Z,-3.00
2019-01-31T07:20:38.152Z,-3.00
2019-01-31T07:23:06.403Z,-2.90
2019-01-31T07:25:34.358Z,-2.90
2019-01-31T07:28:02.289Z,-2.80
2019-01-31T07:30:30.566Z,-2.80
2019-01-31T07:32:58.443Z,-2.80
2019-01-31T07:35:26.665Z,-2.80
2019-01-31T07:37:54.824Z,-2.70
2019-01-31T07:40:22.882Z,-2.70
2019-01-31T07:42:54.293Z,-2.60
2019-01-31T07:45:23.399Z,-2.60
2019-01-31T07:47:51.428Z,-2.60
2019-01-31T07:50:19.576Z,-2.50
2019-01-31T07:52:47.528Z,-2.40
2019-01-31T07:55:15.538Z,-2.40
2019-01-31T07:57:43.737Z,-2.30
2019-01-31T08:00:12.838Z,-2.20
2019-01-31T08:02:40.761Z,-2.20
2019-01-31T08:05:10.120Z,-2.20
2019-01-31T08:07:38.096Z,-2.10
2019-01-31T08:10:07.720Z,-2.10
2019-01-31T08:12:35.614Z,-2.10
2019-01-31T08:15:04.096Z,-2.10
2019-01-31T08:17:32.088Z,-2.00
2019-01-31T08:19:59.977Z,-1.90
2019-01-31T08:22:28.514Z,-1.80
2019-01-31T08:24:56.410Z,-1.70
2019-01-31T08:27:24.501Z,-1.60
2019-01-31T08:29:52.488Z,-1.40
2019-01-31T08:32:20.405Z,-1.30
2019-01-31T08:34:48.444Z,-1.20
2019-01-31T08:37:16.438Z,-1.10
2019-01-31T08:39:44.320Z,-1.00
2019-01-31T08:42:12.212Z,-1.00
2019-01-31T08:44:40.411Z,-0.90
2019-01-31T08:47:08.274Z,-0.80
2019-01-31T08:49:36.276Z,-0.70
2019-01-31T08:52:04.550Z,-0.70
2019-01-31T08:54:32.715Z,-0.60
2019-01-31T08:57:00.713Z,-0.50
2019-01-31T08:59:28.698Z,-0.40
2019-01-31T09:01:56.629Z,-0.30
2019-01-31T09:04:24.772Z,-0.30
2019-01-31T09:06:52.929Z,-0.20
2019-01-31T09:09:20.807Z,0.00
2019-01-31T09:11:48.692Z,0.10
2019-01-31T09:14:16.829Z,0.30
2019-01-31T09:16:50.846Z,0.40
2019-01-31T09:19:18.925Z,0.60
2019-01-31T09:22:04.315Z,0.70
2019-01-31T09:25:00.660Z,0.90
2019-01-31T09:27:53.861Z,1.10
2019-01-31T09:30:50.061Z,1.40
2019-01-31T09:33:37.168Z,1.70
2019-01-31T09:36:23.052Z,2.00
2019-01-31T09:39:10.214Z,2.20
2019-01-31T09:41:47.466Z,2.40
2019-01-31T09:44:25.068Z,2.60
2019-01-31T09:47:18.207Z,2.80
2019-01-31T09:49:54.764Z,2.80
2019-01-31T09:52:45.037Z,3.10
2019-01-31T09:55:32.177Z,3.70
2019-01-31T09:58:07.671Z,4.40
2019-01-31T10:01:13.569Z,4.90
2019-01-31T10:03:47.537Z,5.20
2019-01-31T10:06:23.807Z,4.90
2019-01-31T10:09:15.960Z,4.90
2019-01-31T10:12:02.171Z,5.10
2019-01-31T10:14:42.229Z,5.50
2019-01-31T10:17:28.375Z,6.00
2019-01-31T10:20:11.009Z,6.40
2019-01-31T10:23:03.908Z,6.50
2019-01-31T10:25:49.956Z,6.10
2019-01-31T10:28:28.726Z,5.60
2019-01-31T10:31:19.133Z,5.30
2019-01-31T10:33:54.597Z,5.10
2019-01-31T10:36:25.231Z,5.10
2019-01-31T10:38:57.136Z,5.10
2019-01-31T10:41:32.429Z,5.00
2019-01-31T10:44:09.258Z,4.90
2019-01-31T10:46:42.880Z,4.70
2019-01-31T10:49:24.045Z,4.50
2019-01-31T10:52:09.704Z,4.40
2019-01-31T10:55:12.367Z,4.30
2019-01-31T10:58:02.793Z,4.20
2019-01-31T11:00:44.263Z,4.10
2019-01-31T11:03:16.140Z,4.00
2019-01-31T11:05:48.711Z,4.00
2019-01-31T11:08:51.004Z,4.00
2019-01-31T11:11:34.498Z,4.00
2019-01-31T11:14:20.305Z,4.00
2019-01-31T11:17:06.547Z,3.80
2019-01-31T11:20:02.941Z,3.60
2019-01-31T11:22:37.284Z,3.60
2019-01-31T11:25:23.634Z,3.50
2019-01-31T11:28:02.468Z,3.50
2019-01-31T11:30:37.988Z,3.70
2019-01-31T11:33:23.766Z,4.00
2019-01-31T11:36:13.926Z,4.40
2019-01-31T11:39:11.642Z,4.90
2019-01-31T11:41:46.426Z,5.50
2019-01-31T11:44:39.659Z,6.10
2019-01-31T11:47:21.959Z,6.50
2019-01-31T11:50:15.431Z,6.70
2019-01-31T11:52:56.352Z,6.40
2019-01-31T11:55:30.047Z,6.10
2019-01-31T11:58:01.741Z,6.10
2019-01-31T12:00:29.946Z,5.90
2019-01-31T12:02:58.184Z,5.50
2019-01-31T12:05:26.687Z,5.20
2019-01-31T12:07:54.629Z,4.90
2019-01-31T12:10:22.755Z,4.70
2019-01-31T12:12:50.789Z,4.60
2019-01-31T12:15:18.739Z,4.70
2019-01-31T12:17:46.708Z,4.70
2019-01-31T12:20:14.725Z,4.80
2019-01-31T12:22:43.085Z,4.90
2019-01-31T12:25:11.235Z,5.20
2019-01-31T12:27:39.450Z,5.40
2019-01-31T12:30:10.453Z,5.70
2019-01-31T12:32:38.496Z,5.90
2019-01-31T12:35:06.449Z,6.00
2019-01-31T12:37:34.396Z,5.90
2019-01-31T12:40:02.392Z,5.70
2019-01-31T12:42:30.281Z,5.40
2019-01-31T12:44:58.177Z,5.20
2019-01-31T12:47:26.938Z,5.00
2019-01-31T12:49:55.144Z,5.00
2019-01-31T12:52:23.639Z,5.10
2019-01-31T12:54:51.523Z,5.00
2019-01-31T12:57:19.948Z,4.80
2019-01-31T12:59:47.975Z,4.70
2019-01-31T13:02:16.229Z,4.50
2019-01-31T13:04:44.403Z,4.40
2019-01-31T13:07:12.669Z,4.50
2019-01-31T13:09:40.622Z,4.60
2019-01-31T13:12:08.660Z,4.80
2019-01-31T13:14:36.658Z,4.90
2019-01-31T13:17:06.273Z,5.20
2019-01-31T13:19:34.308Z,5.60
2019-01-31T13:22:02.500Z,5.70
2019-01-31T13:24:30.749Z,5.70
2019-01-31T13:26:58.953Z,5.60
2019-01-31T13:29:27.010Z,5.30
2019-01-31T13:31:54.887Z,5.00
2019-01-31T13:34:22.833Z,4.80
2019-01-31T13:36:50.833Z,4.50
2019-01-31T13:39:19.836Z,4.30
2019-01-31T13:41:48.120Z,4.10
2019-01-31T13:44:16.225Z,3.90
2019-01-31T13:46:44.231Z,3.90
2019-01-31T13:49:12.232Z,4.10
2019-01-31T13:51:40.205Z,4.40
2019-01-31T13:54:08.212Z,4.70
2019-01-31T13:56:45.164Z,5.10
2019-01-31T13:59:06.156Z,5.30
2019-01-31T14:01:34.118Z,5.40
2019-01-31T14:04:02.594Z,5.20
2019-01-31T14:06:31.006Z,5.10
2019-01-31T14:08:59.212Z,5.00
2019-01-31T14:11:27.166Z,4.90
2019-01-31T14:13:55.392Z,4.70
2019-01-31T14:16:23.399Z,4.60
2019-01-31T14:18:53.416Z,4.60
2019-01-31T14:21:21.090Z,4.50
2019-01-31T14:23:49.113Z,4.40
2019-01-31T14:26:17.113Z,4.50
2019-01-31T14:28:45.049Z,4.60
2019-01-31T14:31:13.084Z,4.90
2019-01-31T14:33:41.052Z,5.30
2019-01-31T14:36:09.058Z,5.60
2019-01-31T14:38:37.014Z,5.80
2019-01-31T14:41:05.201Z,6.10
2019-01-31T14:43:33.470Z,6.40
2019-01-31T14:46:01.401Z,6.60
2019-01-31T14:48:29.444Z,6.60
2019-01-31T14:50:57.872Z,6.50
2019-01-31T14:53:25.924Z,6.50
2019-01-31T14:55:55.498Z,6.50
2019-01-31T14:58:23.601Z,6.50
2019-01-31T15:00:51.585Z,6.40
2019-01-31T15:03:20.085Z,6.30
2019-01-31T15:05:48.333Z,6.10
2019-01-31T15:08:16.239Z,5.90
2019-01-31T15:10:45.895Z,5.70
2019-01-31T15:13:14.111Z,5.40
2019-01-31T15:15:42.157Z,5.00
2019-01-31T15:18:10.956Z,4.70
2019-01-31T15:20:40.333Z,4.40
2019-01-31T15:23:08.286Z,4.00
2019-01-31T15:25:36.330Z,3.80
2019-01-31T15:28:04.400Z,3.50
2019-01-31T15:30:33.225Z,3.20
2019-01-31T15:33:01.716Z,3.10
2019-01-31T15:35:29.801Z,2.90
2019-01-31T15:37:57.739Z,2.80
2019-01-31T15:40:27.426Z,2.70
2019-01-31T15:42:55.480Z,2.50
2019-01-31T15:45:23.659Z,2.40
2019-01-31T15:47:51.608Z,2.40
2019-01-31T15:50:19.572Z,2.40
2019-01-31T15:52:47.653Z,2.30
2019-01-31T15:55:16.555Z,2.20
2019-01-31T15:57:44.856Z,2.00
2019-01-31T16:00:17.433Z,1.90
2019-01-31T16:02:45.417Z,1.80
2019-01-31T16:05:19.111Z,1.70
2019-01-31T16:07:43.174Z,1.50
2019-01-31T16:10:11.164Z,1.40
2019-01-31T16:12:39.272Z,1.30
2019-01-31T16:15:08.683Z,1.20
2019-01-31T16:17:37.112Z,1.20
2019-01-31T16:20:05.596Z,1.10
2019-01-31T16:22:34.098Z,1.00
2019-01-31T16:25:01.979Z,0.90
2019-01-31T16:27:30.047Z,0.90
2019-01-31T16:29:58.352Z,0.80
2019-01-31T16:32:28.046Z,0.90
2019-01-31T16:34:55.945Z,0.90
2019-01-31T16:37:24.248Z,0.90
2019-01-31T16:39:52.208Z,0.80
2019-01-31T16:42:20.303Z,0.70
2019-01-31T16:44:48.377Z,0.60
2019-01-31T16:47:16.453Z,0.60
2019-01-31T16:49:44.391Z,0.60
2019-01-31T16:52:12.372Z,0.60
2019-01-31T16:54:40.347Z,0.50
2019-01-31T16:57:08.600Z,0.40
2019-01-31T16:59:36.580Z,0.30
2019-01-31T17:02:05.365Z,0.30
2019-01-31T17:04:34.424Z,0.40
2019-01-31T17:07:02.945Z,0.40
2019-01-31T17:09:30.941Z,0.40
2019-01-31T17:11:58.931Z,0.30
2019-01-31T17:14:30.269Z,0.30
2019-01-31T17:16:58.198Z,0.10
2019-01-31T17:19:26.640Z,0.00
2019-01-31T17:21:54.622Z,0.00
2019-01-31T17:24:23.022Z,-0.10
2019-01-31T17:26:51.768Z,-0.20
2019-01-31T17:29:19.724Z,-0.30
2019-01-31T17:31:47.661Z,-0.30
2019-01-31T17:34:15.731Z,-0.40
2019-01-31T17:36:45.973Z,-0.50
2019-01-31T17:39:13.672Z,-0.60
2019-01-31T17:41:41.600Z,-0.60
2019-01-31T17:44:09.554Z,-0.50
2019-01-31T17:46:37.517Z,-0.40
2019-01-31T17:49:05.814Z,-0.40
2019-01-31T17:51:34.088Z,-0.30
2019-01-31T17:54:02.045Z,-0.20
2019-01-31T17:56:30.422Z,-0.10
2019-01-31T17:58:58.306Z,-0.10
2019-01-31T18:01:26.336Z,0.00
2019-01-31T18:03:54.541Z,0.00
2019-01-31T18:06:23.553Z,0.10
2019-01-31T18:08:51.580Z,0.10
2019-01-31T18:11:22.082Z,0.20
2019-01-31T18:13:52.602Z,0.30
2019-01-31T18:16:19.841Z,0.40
2019-01-31T18:18:48.032Z,0.40
2019-01-31T18:21:18.927Z,0.40
2019-01-31T18:23:46.884Z,0.50
2019-01-31T18:26:15.048Z,0.50
2019-01-31T18:28:43.377Z,0.50
2019-01-31T18:31:13.004Z,0.50
2019-01-31T18:33:41.301Z,0.60
2019-01-31T18:36:09.343Z,0.60
2019-01-31T18:38:37.296Z,0.60
2019-01-31T18:41:05.603Z,0.60
2019-01-31T18:43:34.059Z,0.60
2019-01-31T18:46:02.732Z,0.70
2019-01-31T18:48:30.748Z,0.70
2019-01-31T18:50:58.738Z,0.80
2019-01-31T18:53:27.062Z,0.80
2019-01-31T18:55:55.377Z,0.90
2019-01-31T18:58:23.482Z,0.90
2019-01-31T19:00:51.566Z,1.00
2019-01-31T19:03:20.040Z,1.00
2019-01-31T19:05:48.161Z,1.00
2019-01-31T19:08:16.457Z,1.10
2019-01-31T19:10:44.834Z,1.10
2019-01-31T19:13:12.871Z,1.10
2019-01-31T19:15:40.875Z,1.20
2019-01-31T19:18:09.225Z,1.20
2019-01-31T19:20:37.267Z,1.30
2019-01-31T19:23:06.001Z,1.30
2019-01-31T19:25:34.230Z,1.30
2019-01-31T19:28:02.364Z,1.40
2019-01-31T19:30:31.545Z,1.40
2019-01-31T19:32:59.497Z,1.40
2019-01-31T19:35:27.521Z,1.40
2019-01-31T19:38:02.264Z,1.30
2019-01-31T19:40:27.536Z,1.30
2019-01-31T19:42:55.601Z,1.30
2019-01-31T19:45:25.192Z,1.20
2019-01-31T19:47:53.133Z,1.20
2019-01-31T19:50:21.164Z,1.20
2019-01-31T19:52:49.215Z,1.30
2019-01-31T19:55:17.185Z,1.40
2019-01-31T19:57:45.478Z,1.40
2019-01-31T20:00:15.873Z,1.40
2019-01-31T20:02:44.137Z,1.50
2019-01-31T20:05:12.266Z,1.50
2019-01-31T20:07:40.659Z,1.60
2019-01-31T20:10:10.537Z,1.70
2019-01-31T20:12:38.744Z,1.70
2019-01-31T20:15:07.441Z,1.70
2019-01-31T20:17:35.417Z,1.70
2019-01-31T20:20:04.641Z,1.60
2019-01-31T20:22:32.645Z,1.60
2019-01-31T20:25:00.573Z,1.50
2019-01-31T20:27:29.194Z,1.50
2019-01-31T20:29:57.272Z,1.50
2019-01-31T20:32:25.645Z,1.50
2019-01-31T20:34:53.542Z,1.50
2019-01-31T20:37:21.873Z,1.50
2019-01-31T20:39:50.066Z,1.50
2019-01-31T20:42:17.973Z,1.50
2019-01-31T20:44:46.033Z,1.60
2019-01-31T20:47:15.784Z,1.60
2019-01-31T20:49:43.835Z,1.60
2019-01-31T20:52:11.955Z,1.50
2019-01-31T20:54:39.937Z,1.50
2019-01-31T20:57:08.461Z,1.50
2019-01-31T20:59:36.433Z,1.50
2019-01-31T21:02:04.480Z,1.50
2019-01-31T21:04:32.461Z,1.50
2019-01-31T21:07:00.535Z,1.50
2019-01-31T21:09:28.789Z,1.50
2019-01-31T21:11:57.080Z,1.50
2019-01-31T21:14:25.037Z,1.50
2019-01-31T21:16:53.013Z,1.50
2019-01-31T21:19:21.000Z,1.50
2019-01-31T21:21:49.056Z,1.50
2019-01-31T21:24:17.243Z,1.50
2019-01-31T21:26:45.436Z,1.50
2019-01-31T21:29:13.408Z,1.50
2019-01-31T21:31:41.415Z,1.50
2019-01-31T21:34:09.282Z,1.50
2019-01-31T21:36:37.578Z,1.50
2019-01-31T21:39:07.832Z,1.40
2019-01-31T21:41:35.830Z,1.40
2019-01-31T21:44:03.844Z,1.40
2019-01-31T21:46:31.732Z,1.40
2019-01-31T21:48:59.605Z,1.40
2019-01-31T21:51:27.528Z,1.40
2019-01-31T21:53:55.484Z,1.30
2019-01-31T21:56:23.496Z,1.40
2019-01-31T21:58:51.578Z,1.40
2019-01-31T22:01:20.778Z,1.40
2019-01-31T22:03:48.678Z,1.40
2019-01-31T22:06:22.779Z,1.40
2019-01-31T22:08:46.268Z,1.50
2019-01-31T22:11:14.165Z,1.50
2019-01-31T22:13:42.228Z,1.60
2019-01-31T22:16:10.138Z,1.60
2019-01-31T22:18:38.026Z,1.60
2019-01-31T22:21:06.026Z,1.60
2019-01-31T22:23:34.036Z,1.60
2019-01-31T22:26:01.921Z,1.50
2019-01-31T22:28:30.126Z,1.50
2019-01-31T22:30:58.000Z,1.50
2019-01-31T22:33:25.889Z,1.40
2019-01-31T22:35:54.189Z,1.40
2019-01-31T22:38:22.070Z,1.40
2019-01-31T22:40:50.048Z,1.50
2019-01-31T22:43:18.305Z,1.50
2019-01-31T22:45:46.189Z,1.50
2019-01-31T22:48:14.116Z,1.50
2019-01-31T22:50:42.015Z,1.50
2019-01-31T22:53:09.908Z,1.60
2019-01-31T22:55:37.980Z,1.60
2019-01-31T22:58:06.232Z,1.60
2019-01-31T23:00:56.440Z,1.50
2019-01-31T23:03:24.420Z,1.50
2019-01-31T23:05:52.304Z,1.60
2019-01-31T23:08:20.293Z,1.50
2019-01-31T23:10:48.474Z,1.50
2019-01-31T23:13:16.427Z,1.50
2019-01-31T23:15:44.413Z,1.50
2019-01-31T23:18:12.363Z,1.50
2019-01-31T23:20:40.385Z,1.50
2019-01-31T23:23:08.649Z,1.50
2019-01-31T23:25:40.186Z,1.60
2019-01-31T23:28:07.110Z,1.60
2019-01-31T23:30:35.136Z,1.60
2019-01-31T23:33:03.292Z,1.60
2019-01-31T23:35:31.460Z,1.60
2019-01-31T23:37:59.397Z,1.60
2019-01-31T23:40:27.302Z,1.60
2019-01-31T23:42:55.288Z,1.60
2019-01-31T23:45:24.688Z,1.60
2019-01-31T23:47:52.600Z,1.70
2019-01-31T23:50:20.552Z,1.70
2019-01-31T23:52:48.431Z,1.60
2019-01-31T23:55:16.405Z,1.70
2019-01-31T23:57:44.383Z,1.60
